ADDS METAR Data INFO
IDs: Format: Raw Decoded Include TAF

Data at: 0345 UTC 18 Oct 2017

KJQF 180250Z 00000KT 10SM CLR 08/06 A3036
KJQF 180155Z 00000KT 10SM CLR 09/06 A3035
KJQF 180055Z 00000KT 10SM CLR 11/06 A3034
KJQF 172355Z 00000KT 10SM CLR 12/06 A3033
KJQF 172255Z 00000KT 10SM CLR 14/05 A3031
KJQF 172150Z 36004KT 10SM CLR 18/03 A3030
KJQF 172050Z 36004KT 10SM CLR 18/02 A3030
KJQF 171955Z 01005KT 10SM CLR 19/02 A3031
KJQF 171850Z 04006KT 10SM CLR 18/02 A3033
KJQF 171750Z 06005KT 10SM CLR 17/02 A3036
KJQF 171655Z 10004KT 10SM CLR 17/02 A3038
KJQF 171550Z 06006KT 10SM CLR 16/03 A3041
KJQF 171450Z 04008G14KT 10SM CLR 15/04 A3041
KJQF 171350Z 03005KT 10SM CLR 13/05 A3040
KJQF 171250Z 01005KT 10SM CLR 11/06 A3038
KJQF 171150Z 01005KT 10SM CLR 06/04 A3035
KJQF 171140Z AUTO 36005KT 10SM CLR 06/03 A3035 RMK AO2
KJQF 171135Z AUTO 35003KT 10SM CLR 06/03 A3035 RMK AO2
KJQF 171115Z AUTO 33004KT 10SM CLR 06/04 A3034 RMK AO2
KJQF 171055Z AUTO 33005KT 10SM CLR 06/03 A3034 RMK AO2
KJQF 171050Z 35004KT 10SM CLR 06/04 A3003
KJQF 171035Z AUTO 36003KT 10SM CLR 06/04 A3033 RMK AO2
KJQF 171015Z AUTO 00000KT 10SM CLR 06/04 A3033 RMK AO2
KJQF 170955Z AUTO 36004KT 10SM CLR 06/04 A3031 RMK AO2
KJQF 170935Z AUTO 35003KT 10SM CLR 07/04 A3031 RMK AO2
KJQF 170915Z AUTO 36004KT 10SM CLR 07/04 A3030 RMK AO2
KJQF 170855Z AUTO 36004KT 10SM CLR 06/04 A3030 RMK AO2
KJQF 170835Z AUTO 36003KT 10SM CLR 07/04 A3030 RMK AO2
KJQF 170815Z AUTO 35004KT 10SM CLR 07/04 A3030 RMK AO2
KJQF 170755Z AUTO 36003KT 10SM CLR 07/05 A3030 RMK AO2
KJQF 170735Z AUTO 00000KT 10SM CLR 07/04 A3030 RMK AO2
KJQF 170715Z AUTO 34003KT 10SM CLR 07/04 A3030 RMK AO2
KJQF 170655Z AUTO 36003KT 10SM CLR 08/05 A3030 RMK AO2
KJQF 170635Z AUTO 35003KT 10SM CLR 08/05 A3029 RMK AO2
KJQF 170615Z AUTO 36003KT 10SM CLR 08/05 A3029 RMK AO2
KJQF 170555Z AUTO 35003KT 10SM CLR 08/04 A3029 RMK AO2
KJQF 170535Z AUTO 35003KT 10SM CLR 08/04 A3028 RMK AO2
KJQF 170515Z AUTO 34004KT 10SM CLR 10/04 A3028 RMK AO2
KJQF 170455Z AUTO 34006KT 10SM CLR 10/05 A3028 RMK AO2
KJQF 170435Z AUTO 35005KT 10SM CLR 10/05 A3028 RMK AO2
KJQF 170410Z AUTO 35006KT 10SM CLR 09/05 A3028 RMK AO2
KJQF 170350Z AUTO 34005KT 10SM CLR 09/05 A3028 RMK AO2
KJQF 170330Z AUTO 34005KT 10SM CLR 10/05 A3028 RMK AO2
KJQF 170250Z 35006KT 10SM CLR 11/05 A3028
KJQF 170150Z 01006KT 10SM CLR 11/05 A3027
KJQF 170050Z 02008KT 10SM CLR 12/04 A3024
KJQF 162350Z 02008KT 10SM CLR 14/04 A3021
KJQF 162250Z 01010KT 10SM CLR 16/05 A3018
KJQF 162150Z 03013G20KT 10SM CLR 18/05 A3015
KJQF 162050Z 03013G20KT 10SM CLR 19/06 A3013
KJQF 161950Z 01013G20KT 10SM CLR 19/08 A3012
KJQF 161850Z 01012KT 10SM CLR A19/08 A3013
KJQF 161759Z 36008G18KT 10SM CLR 19/09 A3013
KJQF 161655Z 01007KT 10SM BKN047 17/11 A3014
KJQF 161550Z 01010KT 10SM BKN039 16/11 A3014